createdAt,value
2024-01-01T00:01:43.841Z,36.65
2024-01-01T00:04:11.500Z,37.80
2024-01-01T00:06:38.770Z,42.63
2024-01-01T00:09:06.191Z,40.63
2024-01-01T00:11:33.509Z,42.65
2024-01-01T00:14:00.939Z,37.05
2024-01-01T00:16:28.301Z,36.97
2024-01-01T00:18:55.640Z,24.33
2024-01-01T00:21:23.171Z,23.27
2024-01-01T00:23:50.527Z,18.65
2024-01-01T00:26:17.919Z,19.20
2024-01-01T00:28:45.276Z,18.40
2024-01-01T00:31:12.713Z,26.52
2024-01-01T00:33:40.193Z,22.52
2024-01-01T00:36:08.011Z,18.10
2024-01-01T00:38:35.689Z,16.27
2024-01-01T00:41:03.062Z,14.75
2024-01-01T00:43:31.072Z,15.85
2024-01-01T00:45:58.343Z,14.10
2024-01-01T00:48:25.716Z,13.88
2024-01-01T00:50:53.001Z,14.93
2024-01-01T00:53:20.315Z,14.40
2024-01-01T00:55:48.064Z,16.27
2024-01-01T00:58:16.013Z,15.27
2024-01-01T01:00:43.684Z,14.70
2024-01-01T01:03:11.275Z,13.07
2024-01-01T01:05:38.794Z,12.57
2024-01-01T01:08:07.222Z,11.82
2024-01-01T01:10:34.730Z,10.27
2024-01-01T01:13:02.203Z,12.45
2024-01-01T01:15:29.756Z,12.35
2024-01-01T01:17:57.452Z,11.55
2024-01-01T01:20:24.861Z,12.63
2024-01-01T01:22:52.209Z,20.40
2024-01-01T01:25:19.710Z,25.65
2024-01-01T01:27:48.114Z,24.45
2024-01-01T01:30:15.505Z,24.50
2024-01-01T01:32:43.034Z,23.08
2024-01-01T01:35:11.977Z,23.25
2024-01-01T01:37:39.346Z,22.45
2024-01-01T01:40:07.791Z,23.23
2024-01-01T01:42:35.137Z,22.58
2024-01-01T01:45:02.571Z,24.00
2024-01-01T01:47:30.224Z,22.40
2024-01-01T01:49:58.094Z,22.83
2024-01-01T01:52:25.905Z,22.85
2024-01-01T01:54:56.852Z,22.67
2024-01-01T01:57:25.020Z,22.00
2024-01-01T01:59:53.102Z,20.77
2024-01-01T02:02:24.760Z,20.77
2024-01-01T02:04:52.236Z,20.30
2024-01-01T02:07:21.757Z,20.30
2024-01-01T02:09:49.105Z,21.00
2024-01-01T02:12:16.522Z,20.50
2024-01-01T02:14:44.845Z,20.75
2024-01-01T02:17:12.221Z,21.52
2024-01-01T02:19:39.657Z,20.02
2024-01-01T02:22:06.953Z,19.83
2024-01-01T02:24:34.517Z,20.70
2024-01-01T02:27:01.788Z,19.77
2024-01-01T02:29:29.411Z,19.45
2024-01-01T02:31:56.743Z,19.05
2024-01-01T02:34:25.425Z,20.38
2024-01-01T02:36:55.080Z,18.98
2024-01-01T02:39:22.469Z,21.00
2024-01-01T02:41:49.779Z,19.33
2024-01-01T02:44:18.855Z,20.08
2024-01-01T02:46:46.386Z,19.90
2024-01-01T02:49:13.791Z,21.70
2024-01-01T02:51:44.749Z,22.30
2024-01-01T02:54:12.601Z,20.17
2024-01-01T02:56:39.917Z,20.85
2024-01-01T02:59:07.556Z,21.27
2024-01-01T03:01:35.001Z,20.02
2024-01-01T03:04:02.385Z,21.02
2024-01-01T03:06:29.771Z,20.17
2024-01-01T03:08:57.110Z,20.63
2024-01-01T03:11:24.406Z,20.40
2024-01-01T03:13:51.806Z,21.13
2024-01-01T03:16:19.258Z,19.70
2024-01-01T03:18:46.663Z,18.92
2024-01-01T03:21:14.286Z,19.10
2024-01-01T03:23:43.778Z,21.30
2024-01-01T03:26:11.987Z,18.58
2024-01-01T03:28:39.340Z,23.08
2024-01-01T03:31:06.801Z,23.08
2024-01-01T03:33:37.496Z,22.35
2024-01-01T03:38:32.142Z,21.13
2024-01-01T03:40:59.544Z,20.92
2024-01-01T03:43:26.787Z,23.05
2024-01-01T03:45:54.127Z,22.92
2024-01-01T03:48:22.005Z,24.00
2024-01-01T03:50:49.362Z,22.08
2024-01-01T03:53:16.697Z,22.92
2024-01-01T03:55:44.005Z,23.48
2024-01-01T03:58:11.225Z,22.05
2024-01-01T04:00:38.961Z,22.05
2024-01-01T04:03:06.447Z,21.88
2024-01-01T04:05:34.025Z,21.92
2024-01-01T04:08:01.614Z,19.83
2024-01-01T04:10:29.150Z,21.05
2024-01-01T04:12:56.634Z,21.83
2024-01-01T04:15:23.853Z,22.05
2024-01-01T04:17:51.287Z,21.05
2024-01-01T04:20:18.768Z,21.10
2024-01-01T04:22:46.923Z,22.38
2024-01-01T04:25:14.274Z,21.77
2024-01-01T04:27:41.656Z,20.88
2024-01-01T04:30:09.766Z,21.60
2024-01-01T04:32:37.653Z,22.42
2024-01-01T04:35:05.549Z,22.40
2024-01-01T04:37:32.999Z,21.48
2024-01-01T04:40:00.277Z,20.35
2024-01-01T04:42:27.603Z,21.35
2024-01-01T04:44:55.007Z,19.88
2024-01-01T04:47:23.816Z,22.17
2024-01-01T04:49:51.428Z,20.60
2024-01-01T04:52:18.678Z,20.00
2024-01-01T04:54:45.955Z,19.55
2024-01-01T04:57:13.196Z,17.30
2024-01-01T04:59:40.522Z,16.50
2024-01-01T05:02:07.810Z,18.30
2024-01-01T05:04:35.176Z,16.95
2024-01-01T05:07:02.405Z,17.27
2024-01-01T05:09:29.635Z,16.55
2024-01-01T05:11:57.905Z,15.32
2024-01-01T05:14:25.235Z,15.40
2024-01-01T05:16:52.720Z,16.98
2024-01-01T05:19:20.076Z,15.10
2024-01-01T05:21:47.352Z,16.85
2024-01-01T05:24:14.613Z,14.75
2024-01-01T05:26:41.961Z,14.00
2024-01-01T05:29:09.320Z,14.43
2024-01-01T05:31:36.873Z,14.68
2024-01-01T05:34:05.163Z,14.18
2024-01-01T05:36:32.722Z,9.05
2024-01-01T05:39:00.198Z,10.20
2024-01-01T05:41:28.009Z,10.60
2024-01-01T05:43:55.297Z,11.50
2024-01-01T05:46:22.716Z,8.77
2024-01-01T05:48:50.418Z,7.30
2024-01-01T05:51:17.886Z,7.63
2024-01-01T05:53:45.329Z,7.35
2024-01-01T05:56:12.700Z,6.57
2024-01-01T05:58:40.274Z,5.82
2024-01-01T06:01:07.683Z,5.32
2024-01-01T06:03:35.131Z,5.22
2024-01-01T06:06:02.733Z,4.28
2024-01-01T06:08:30.137Z,4.00
2024-01-01T06:10:57.763Z,4.22
2024-01-01T06:13:25.942Z,4.30
2024-01-01T06:15:54.033Z,3.67
2024-01-01T06:18:22.958Z,3.67
2024-01-01T06:20:50.449Z,4.22
2024-01-01T06:23:18.422Z,4.50
2024-01-01T06:25:45.947Z,4.22
2024-01-01T06:28:13.329Z,4.57
2024-01-01T06:30:40.693Z,4.40
2024-01-01T06:33:08.125Z,4.22
2024-01-01T06:35:35.571Z,5.43
2024-01-01T06:38:03.333Z,4.75
2024-01-01T06:40:30.809Z,4.90
2024-01-01T06:42:58.173Z,4.78
2024-01-01T06:45:25.444Z,4.63
2024-01-01T06:47:53.000Z,4.15
2024-01-01T06:50:20.466Z,4.20
2024-01-01T06:52:47.793Z,4.18
2024-01-01T06:55:18.904Z,4.10
2024-01-01T06:57:46.451Z,4.32
2024-01-01T07:00:14.663Z,4.85
2024-01-01T07:02:42.463Z,4.78
2024-01-01T07:05:10.142Z,3.88
2024-01-01T07:07:37.812Z,3.80
2024-01-01T07:10:06.551Z,4.60
2024-01-01T07:12:35.081Z,4.88
2024-01-01T07:15:03.468Z,4.78
2024-01-01T07:17:31.045Z,5.10
2024-01-01T07:19:59.502Z,4.85
2024-01-01T07:22:26.863Z,4.43
2024-01-01T07:24:54.205Z,4.82
2024-01-01T07:27:22.851Z,4.45
2024-01-01T07:29:50.153Z,3.50
2024-01-01T07:32:17.597Z,3.22
2024-01-01T07:34:44.994Z,3.67
2024-01-01T07:37:12.840Z,3.53
2024-01-01T07:39:40.262Z,3.13
2024-01-01T07:42:09.685Z,3.10
2024-01-01T07:44:37.097Z,2.08
2024-01-01T07:47:04.581Z,2.58
2024-01-01T07:49:32.102Z,2.90
2024-01-01T07:51:59.470Z,2.88
2024-01-01T07:54:27.816Z,3.75
2024-01-01T07:56:55.860Z,2.67
2024-01-01T07:59:23.341Z,2.90
2024-01-01T08:01:50.680Z,2.10
2024-01-01T08:04:18.136Z,2.00
2024-01-01T08:06:45.527Z,2.05
2024-01-01T08:09:12.907Z,1.90
2024-01-01T08:11:40.383Z,2.17
2024-01-01T08:14:08.611Z,1.75
2024-01-01T08:16:36.168Z,2.47
2024-01-01T08:19:03.997Z,2.28
2024-01-01T08:21:31.384Z,2.17
2024-01-01T08:23:59.012Z,1.95
2024-01-01T08:26:27.128Z,2.35
2024-01-01T08:28:54.584Z,2.45
2024-01-01T08:31:22.655Z,1.80
2024-01-01T08:33:50.884Z,1.95
2024-01-01T08:36:20.916Z,1.70
2024-01-01T08:38:48.928Z,1.55
2024-01-01T08:41:19.403Z,1.80
2024-01-01T08:43:48.136Z,2.03
2024-01-01T08:46:15.850Z,2.03
2024-01-01T08:48:43.943Z,2.03
2024-01-01T08:51:11.453Z,1.63
2024-01-01T08:53:38.921Z,1.50
2024-01-01T08:56:06.859Z,1.05
2024-01-01T08:58:34.369Z,1.30
2024-01-01T09:01:01.898Z,1.88
2024-01-01T09:03:30.406Z,1.58
2024-01-01T09:05:59.749Z,1.52
2024-01-01T09:08:27.583Z,1.27
2024-01-01T09:10:54.981Z,1.58
2024-01-01T09:13:22.456Z,1.60
2024-01-01T09:15:50.628Z,1.27
2024-01-01T09:18:18.294Z,1.48
2024-01-01T09:20:46.247Z,1.13
2024-01-01T09:23:14.409Z,1.35
2024-01-01T09:25:42.401Z,1.52
2024-01-01T09:28:09.964Z,1.00
2024-01-01T09:30:37.461Z,1.10
2024-01-01T09:33:05.344Z,1.13
2024-01-01T09:35:33.376Z,1.13
2024-01-01T09:38:04.506Z,1.23
2024-01-01T09:40:32.687Z,0.88
2024-01-01T09:43:00.113Z,1.10
2024-01-01T09:45:30.846Z,1.00
2024-01-01T09:47:58.247Z,0.90
2024-01-01T09:50:25.867Z,0.70
2024-01-01T09:53:03.155Z,1.02
2024-01-01T09:55:31.466Z,0.73
2024-01-01T09:57:58.854Z,1.05
2024-01-01T10:00:27.429Z,1.00
2024-01-01T10:03:12.190Z,0.93
2024-01-01T10:05:40.936Z,1.00
2024-01-01T10:08:15.082Z,1.40
2024-01-01T10:10:44.454Z,1.50
2024-01-01T10:13:15.019Z,1.77
2024-01-01T10:15:44.240Z,93.75
2024-01-01T10:18:14.300Z,8.85
2024-01-01T10:23:22.768Z,1.80
2024-01-01T10:26:02.159Z,1.08
2024-01-01T10:28:33.278Z,1.17
2024-01-01T10:31:02.346Z,0.90
2024-01-01T10:33:33.001Z,0.50
2024-01-01T10:38:33.058Z,0.50
2024-01-01T10:41:00.883Z,0.77
2024-01-01T10:43:31.303Z,1.13
2024-01-01T10:46:06.015Z,0.90
2024-01-01T10:48:37.302Z,1.15
2024-01-01T10:51:19.780Z,1.30
2024-01-01T10:54:21.421Z,1.30
2024-01-01T10:57:03.742Z,1.35
2024-01-01T10:59:47.430Z,1.08
2024-01-01T11:02:15.244Z,0.90
2024-01-01T11:04:42.556Z,1.00
2024-01-01T11:07:09.990Z,0.90
2024-01-01T11:09:37.380Z,0.93
2024-01-01T11:12:07.058Z,1.10
2024-01-01T11:14:35.912Z,1.88
2024-01-01T11:17:08.705Z,1.40
2024-01-01T11:19:50.779Z,1.20
2024-01-01T11:22:31.755Z,1.58
2024-01-01T11:25:00.790Z,1.30
2024-01-01T11:27:34.288Z,1.27
2024-01-01T11:30:07.160Z,1.33
2024-01-01T11:32:36.762Z,1.30
2024-01-01T11:35:15.467Z,2.28
2024-01-01T11:37:45.841Z,1.63
2024-01-01T11:40:14.763Z,2.17
2024-01-01T11:42:43.237Z,1.80
2024-01-01T11:45:18.458Z,1.98
2024-01-01T11:47:47.433Z,1.58
2024-01-01T11:50:16.069Z,2.33
2024-01-01T11:52:43.963Z,2.05
2024-01-01T11:55:11.743Z,1.75
2024-01-01T11:57:43.800Z,2.10
2024-01-01T12:00:14.385Z,2.22
2024-01-01T12:02:42.443Z,2.30
2024-01-01T12:05:10.439Z,2.00
2024-01-01T12:07:38.571Z,2.22
2024-01-01T12:10:17.780Z,2.38
2024-01-01T12:12:46.480Z,2.42
2024-01-01T12:15:23.922Z,2.45
2024-01-01T12:17:53.833Z,3.80
2024-01-01T12:20:24.393Z,2.30
2024-01-01T12:22:54.680Z,2.58
2024-01-01T12:25:25.227Z,3.17
2024-01-01T12:30:36.241Z,2.75
2024-01-01T12:33:05.184Z,2.35
2024-01-01T12:35:33.234Z,2.80
2024-01-01T12:38:01.350Z,3.20
2024-01-01T12:40:30.693Z,3.50
2024-01-01T12:42:59.273Z,2.92
2024-01-01T12:45:28.356Z,3.15
2024-01-01T12:47:57.536Z,2.97
2024-01-01T12:50:25.154Z,3.28
2024-01-01T12:52:52.557Z,3.22
2024-01-01T12:55:19.998Z,2.90
2024-01-01T12:57:47.503Z,3.58
2024-01-01T13:00:15.418Z,3.35
2024-01-01T13:02:43.073Z,3.70
2024-01-01T13:05:10.814Z,3.85
2024-01-01T13:07:38.180Z,3.63
2024-01-01T13:10:06.155Z,3.47
2024-01-01T13:12:33.489Z,3.13
2024-01-01T13:15:00.710Z,2.67
2024-01-01T13:17:28.222Z,3.20
2024-01-01T13:19:55.626Z,3.53
2024-01-01T13:22:26.125Z,3.85
2024-01-01T13:24:53.586Z,3.60
2024-01-01T13:27:21.408Z,3.85
2024-01-01T13:29:49.453Z,3.72
2024-01-01T13:32:17.884Z,3.00
2024-01-01T13:34:45.543Z,3.35
2024-01-01T13:37:13.209Z,4.05
2024-01-01T13:39:40.873Z,3.42
2024-01-01T13:42:08.478Z,2.95
2024-01-01T13:44:36.616Z,3.35
2024-01-01T13:47:05.228Z,3.30
2024-01-01T13:49:36.993Z,3.55
2024-01-01T13:52:04.768Z,3.45
2024-01-01T13:54:32.210Z,3.83
2024-01-01T13:56:59.532Z,2.70
2024-01-01T13:59:27.212Z,4.05
2024-01-01T14:01:54.960Z,3.90
2024-01-01T14:04:22.675Z,5.20
2024-01-01T14:06:50.002Z,4.47
2024-01-01T14:09:19.954Z,4.10
2024-01-01T14:11:50.541Z,4.60
2024-01-01T14:14:18.671Z,3.33
2024-01-01T14:16:47.676Z,4.70
2024-01-01T14:19:16.180Z,6.13
2024-01-01T14:21:43.905Z,5.10
2024-01-01T14:24:11.460Z,7.00
2024-01-01T14:26:38.974Z,6.28
2024-01-01T14:29:06.591Z,5.78
2024-01-01T14:31:33.998Z,4.65
2024-01-01T14:34:01.481Z,3.40
2024-01-01T14:36:28.944Z,3.92
2024-01-01T14:38:56.586Z,4.35
2024-01-01T14:41:24.081Z,4.70
2024-01-01T14:43:51.666Z,4.60
2024-01-01T14:46:20.052Z,4.05
2024-01-01T14:48:47.413Z,4.07
2024-01-01T14:51:17.084Z,7.07
2024-01-01T14:53:45.159Z,5.32
2024-01-01T14:56:15.557Z,5.40
2024-01-01T14:58:44.561Z,4.05
2024-01-01T15:01:23.167Z,3.63
2024-01-01T15:03:51.251Z,4.90
2024-01-01T15:06:19.773Z,4.00
2024-01-01T15:08:47.662Z,4.60
2024-01-01T15:11:15.367Z,7.78
2024-01-01T15:13:42.863Z,4.82
2024-01-01T15:16:10.832Z,8.23
2024-01-01T15:18:38.582Z,12.45
2024-01-01T15:21:06.650Z,11.85
2024-01-01T15:23:34.699Z,18.77
2024-01-01T15:26:06.778Z,12.88
2024-01-01T15:28:35.131Z,9.73
2024-01-01T15:31:02.529Z,12.90
2024-01-01T15:33:30.280Z,10.88
2024-01-01T15:35:57.982Z,5.80
2024-01-01T15:38:25.503Z,4.82
2024-01-01T15:40:53.331Z,6.00
2024-01-01T15:43:20.819Z,7.03
2024-01-01T15:45:48.321Z,8.52
2024-01-01T15:48:17.465Z,6.03
2024-01-01T15:50:50.969Z,9.23
2024-01-01T15:53:25.437Z,6.45
2024-01-01T15:55:53.379Z,6.80
2024-01-01T15:58:21.315Z,11.45
2024-01-01T16:00:48.944Z,8.43
2024-01-01T16:03:16.499Z,25.95
2024-01-01T16:05:44.163Z,6.00
2024-01-01T16:08:11.675Z,6.47
2024-01-01T16:10:39.328Z,11.10
2024-01-01T16:13:06.928Z,8.82
2024-01-01T16:15:43.426Z,7.55
2024-01-01T16:18:11.014Z,11.13
2024-01-01T16:20:38.569Z,8.00
2024-01-01T16:23:06.754Z,4.72
2024-01-01T16:25:34.823Z,4.50
2024-01-01T16:28:02.147Z,6.95
2024-01-01T16:30:29.649Z,7.05
2024-01-01T16:32:57.066Z,12.82
2024-01-01T16:35:25.850Z,12.32
2024-01-01T16:37:53.609Z,10.85
2024-01-01T16:40:21.753Z,10.00
2024-01-01T16:42:49.947Z,8.00
2024-01-01T16:45:17.602Z,4.82
2024-01-01T16:47:45.374Z,7.15
2024-01-01T16:50:12.928Z,7.75
2024-01-01T16:52:40.282Z,5.80
2024-01-01T16:55:08.002Z,5.50
2024-01-01T16:57:36.503Z,5.47
2024-01-01T17:00:07.932Z,3.45
2024-01-01T17:02:35.487Z,3.65
2024-01-01T17:05:04.930Z,4.72
2024-01-01T17:07:32.552Z,4.85
2024-01-01T17:09:59.926Z,3.58
2024-01-01T17:12:27.397Z,3.13
2024-01-01T17:14:55.059Z,2.83
2024-01-01T17:17:25.875Z,3.40
2024-01-01T17:19:54.446Z,3.53
2024-01-01T17:22:22.022Z,2.60
2024-01-01T17:24:50.601Z,2.58
2024-01-01T17:27:18.007Z,3.45
2024-01-01T17:29:45.455Z,2.88
2024-01-01T17:32:13.031Z,3.25
2024-01-01T17:34:40.576Z,3.60
2024-01-01T17:37:09.907Z,3.75
2024-01-01T17:39:37.617Z,3.05
2024-01-01T17:42:05.393Z,3.30
2024-01-01T17:44:33.090Z,3.97
2024-01-01T17:47:00.593Z,2.78
2024-01-01T17:49:28.086Z,3.17
2024-01-01T17:51:55.462Z,3.33
2024-01-01T17:54:23.682Z,3.35
2024-01-01T17:56:51.223Z,3.17
2024-01-01T17:59:18.964Z,3.80
2024-01-01T18:01:46.476Z,3.88
2024-01-01T18:04:14.287Z,3.03
2024-01-01T18:06:42.462Z,3.03
2024-01-01T18:09:09.941Z,3.22
2024-01-01T18:11:37.360Z,3.40
2024-01-01T18:14:04.873Z,3.20
2024-01-01T18:16:32.269Z,2.78
2024-01-01T18:18:59.804Z,2.92
2024-01-01T18:21:28.456Z,3.05
2024-01-01T18:23:55.879Z,2.83
2024-01-01T18:26:23.301Z,3.67
2024-01-01T18:28:50.902Z,3.72
2024-01-01T18:31:20.766Z,3.10
2024-01-01T18:33:49.113Z,2.38
2024-01-01T18:36:21.189Z,3.03
2024-01-01T18:38:49.894Z,2.80
2024-01-01T18:41:17.591Z,2.60
2024-01-01T18:43:45.057Z,2.30
2024-01-01T18:46:15.685Z,2.72
2024-01-01T18:48:43.622Z,3.28
2024-01-01T18:51:11.564Z,2.80
2024-01-01T18:53:40.783Z,2.55
2024-01-01T18:56:08.381Z,2.25
2024-01-01T18:58:35.818Z,2.70
2024-01-01T19:01:03.368Z,2.50
2024-01-01T19:03:31.480Z,2.42
2024-01-01T19:05:59.231Z,2.75
2024-01-01T19:08:26.866Z,3.10
2024-01-01T19:10:54.427Z,2.30
2024-01-01T19:13:21.728Z,2.70
2024-01-01T19:15:49.108Z,2.63
2024-01-01T19:18:17.157Z,2.30
2024-01-01T19:20:44.687Z,2.35
2024-01-01T19:23:12.195Z,2.30
2024-01-01T19:25:39.637Z,2.63
2024-01-01T19:28:07.292Z,2.75
2024-01-01T19:30:34.755Z,2.65
2024-01-01T19:33:02.258Z,2.42
2024-01-01T19:35:29.897Z,2.10
2024-01-01T19:37:57.184Z,2.40
2024-01-01T19:40:24.842Z,2.47
2024-01-01T19:42:52.200Z,2.05
2024-01-01T19:45:19.463Z,2.13
2024-01-01T19:47:46.833Z,1.70
2024-01-01T19:50:14.306Z,1.95
2024-01-01T19:52:42.656Z,1.92
2024-01-01T19:55:10.261Z,1.80
2024-01-01T19:57:37.666Z,1.77
2024-01-01T20:00:06.272Z,2.45
2024-01-01T20:02:33.841Z,2.08
2024-01-01T20:05:01.794Z,1.63
2024-01-01T20:07:29.331Z,1.73
2024-01-01T20:10:00.359Z,2.10
2024-01-01T20:12:30.102Z,1.83
2024-01-01T20:14:57.690Z,2.03
2024-01-01T20:17:25.307Z,1.83
2024-01-01T20:19:53.715Z,2.25
2024-01-01T20:22:21.429Z,1.92
2024-01-01T20:24:49.165Z,1.83
2024-01-01T20:27:16.562Z,2.08
2024-01-01T20:29:43.915Z,1.90
2024-01-01T20:32:11.568Z,1.92
2024-01-01T20:34:39.301Z,1.83
2024-01-01T20:37:06.800Z,2.03
2024-01-01T20:39:34.244Z,1.75
2024-01-01T20:42:01.833Z,2.35
2024-01-01T20:44:29.180Z,2.10
2024-01-01T20:46:56.666Z,1.90
2024-01-01T20:49:24.108Z,2.15
2024-01-01T20:51:51.728Z,2.03
2024-01-01T20:54:19.399Z,2.28
2024-01-01T20:56:47.079Z,1.70
2024-01-01T20:59:15.192Z,2.63
2024-01-01T21:01:43.331Z,1.80
2024-01-01T21:04:10.982Z,2.15
2024-01-01T21:06:38.565Z,1.63
2024-01-01T21:09:06.176Z,1.90
2024-01-01T21:11:33.769Z,1.80
2024-01-01T21:14:01.630Z,1.60
2024-01-01T21:16:29.325Z,1.58
2024-01-01T21:18:56.854Z,1.77
2024-01-01T21:21:30.447Z,1.70
2024-01-01T21:24:00.044Z,1.52
2024-01-01T21:26:27.641Z,1.38
2024-01-01T21:28:55.157Z,1.40
2024-01-01T21:31:22.552Z,2.05
2024-01-01T21:33:51.582Z,1.30
2024-01-01T21:36:19.315Z,1.92
2024-01-01T21:38:46.961Z,1.50
2024-01-01T21:41:15.683Z,1.40
2024-01-01T21:43:42.991Z,1.27
2024-01-01T21:46:10.798Z,1.40
2024-01-01T21:48:38.181Z,2.63
2024-01-01T21:51:05.922Z,1.30
2024-01-01T21:53:33.261Z,1.50
2024-01-01T21:56:00.546Z,1.08
2024-01-01T21:58:27.919Z,0.80
2024-01-01T22:00:55.261Z,1.40
2024-01-01T22:03:22.638Z,1.10
2024-01-01T22:05:52.619Z,1.77
2024-01-01T22:08:20.069Z,1.98
2024-01-01T22:10:48.721Z,1.42
2024-01-01T22:13:16.156Z,1.27
2024-01-01T22:15:43.547Z,1.50
2024-01-01T22:18:10.947Z,1.40
2024-01-01T22:20:39.669Z,1.50
2024-01-01T22:23:10.261Z,1.92
2024-01-01T22:25:38.800Z,1.52
2024-01-01T22:28:06.822Z,2.35
2024-01-01T22:30:34.268Z,1.50
2024-01-01T22:33:01.553Z,1.42
2024-01-01T22:35:29.883Z,1.92
2024-01-01T22:37:57.283Z,1.30
2024-01-01T22:40:25.119Z,1.35
2024-01-01T22:42:52.606Z,1.90
2024-01-01T22:45:19.941Z,1.52
2024-01-01T22:47:47.491Z,1.83
2024-01-01T22:50:15.196Z,1.10
2024-01-01T22:52:42.528Z,2.00
2024-01-01T22:55:10.121Z,1.67
2024-01-01T22:57:37.433Z,1.55
2024-01-01T23:00:21.499Z,0.90
2024-01-01T23:02:53.242Z,1.48
2024-01-01T23:05:21.635Z,1.10
2024-01-01T23:07:50.657Z,1.80
2024-01-01T23:10:30.052Z,1.60
2024-01-01T23:12:58.218Z,1.50
2024-01-01T23:15:26.744Z,1.08
2024-01-01T23:17:55.206Z,1.35
2024-01-01T23:20:22.682Z,1.63
2024-01-01T23:22:50.158Z,1.05
2024-01-01T23:25:17.446Z,1.50
2024-01-01T23:27:44.946Z,1.40
2024-01-01T23:30:12.753Z,2.47
2024-01-01T23:32:40.295Z,1.00
2024-01-01T23:35:08.102Z,1.23
2024-01-01T23:37:35.656Z,1.00
2024-01-01T23:40:03.259Z,1.17
2024-01-01T23:42:30.489Z,1.23
2024-01-01T23:44:57.851Z,1.08
2024-01-01T23:47:25.213Z,1.42
2024-01-01T23:49:53.487Z,1.33
2024-01-01T23:52:20.792Z,1.05
2024-01-01T23:54:48.090Z,1.27
2024-01-01T23:57:16.292Z,1.65
2024-01-01T23:59:43.759Z,1.73
